Flight Track Log - Related Links

Times and Time Zones

All times are in EST time to prevent confusion due to time zone crossing. See the AAL963 flight status page for this flight to view local times or setup timezone preferences in your user account.

Time Position Orientation Groundspeed Altitude Reporting Facility
EST Latitude Longitude Course Direction KTS MPH feet Rate Location/Type
Sun 09:53:03 PM 32.9154 -97.0298 163° South 190 219 1,900  Level FlightAware ADS-B
Sun 09:55:35 PM 32.8564 -97.0216 173° South 197 227 2,200 173 Climbing FlightAware ADS-B
Sun 09:55:56 PM 32.8422 -97.0151 159° South 216 249 2,400 1,576 Climbing FlightAware ADS-B
Sun 09:57:14 PM 32.7610 -96.9509 146° Southeast 296 341 4,800 1,933 Climbing FlightAware ADS-B
Sun 09:57:26 PM 32.7583 -96.9313 99° East 303 349 5,300 2,276 Climbing FlightAware ADS-B
Sun 09:57:43 PM 32.7583 -96.9116 90° East 304 350 5,900 2,595 Climbing FlightAware ADS-B
Sun 09:58:03 PM 32.7613 -96.8698 85° East 306 352 6,900 2,488 Climbing FlightAware ADS-B
Sun 09:58:24 PM 32.7624 -96.8348 88° East 314 361 7,600 2,195 Climbing FlightAware ADS-B
Sun 09:58:44 PM 32.7630 -96.7993 89° East 320 368 8,400 2,341 Climbing FlightAware ADS-B
Sun 09:59:05 PM 32.7632 -96.7621 90° East 327 376 9,200 2,049 Climbing FlightAware ADS-B
Sun 09:59:25 PM 32.7633 -96.7262 90° East 337 388 9,800 1,622 Climbing FlightAware ADS-B
Sun 10:00:56 PM 32.7637 -96.5426 90° East 412 474 12,200 1,682 Climbing FlightAware ADS-B
Sun 10:01:37 PM 32.7646 -96.4462 89° East 438 504 13,500 2,122 Climbing FlightAware ADS-B
Sun 10:02:18 PM 32.7619 -96.3435 92° East 453 521 15,100 2,308 Climbing FlightAware ADS-B
Sun 10:02:55 PM 32.7513 -96.2510 98° East 466 536 16,500 2,229 Climbing FlightAware ADS-B
Sun 10:03:28 PM 32.7379 -96.1753 102° East 478 550 17,700 2,143 Climbing FlightAware ADS-B
Sun 10:04:05 PM 32.7209 -96.0743 101° East 488 562 19,000 1,826 Climbing FlightAware ADS-B
Sun 10:04:37 PM 32.7072 -95.9896 101° East 505 581 19,800 1,875 Climbing FlightAware ADS-B
Sun 10:04:53 PM 32.6982 -95.9330 101° East 514 592 20,500 1,610 Climbing FlightAware ADS-B
Sun 10:05:18 PM 32.6884 -95.8719 101° East 524 603 20,900 1,548 Climbing FlightAware ADS-B
Sun 10:05:24 PM 32.6843 -95.8461 101° East 526 605 21,300 1,714 Climbing FlightAware ADS-B
Sun 10:06:07 PM 32.6655 -95.7261 101° East 544 626 22,300 1,645 Climbing FlightAware ADS-B
Sun 10:06:26 PM 32.6603 -95.6628 96° East 542 624 23,000 1,862 Climbing FlightAware ADS-B
Sun 10:06:36 PM 32.6597 -95.6338 91° East 552 635 23,200 1,544 Climbing FlightAware ADS-B
Sun 10:09:17 PM 32.6920 -95.1338 85° East 587 676 27,400 1,500 Climbing FlightAware ADS-B
Sun 10:09:48 PM 32.6984 -95.0335 86° East 597 687 28,000 1,180 Climbing FlightAware ADS-B
Sun 10:10:18 PM 32.7047 -94.9349 86° East 605 696 28,600 1,174 Climbing FlightAware ADS-B
Sun 10:10:34 PM 32.7076 -94.8829 86° East 607 699 28,900 1,161 Climbing FlightAware ADS-B
Sun 10:10:49 PM 32.7066 -94.8324 91° East 612 704 29,200 1,034 Climbing FlightAware ADS-B
Sun 10:11:03 PM 32.7015 -94.7859 97° East 615 708 29,400 1,355 Climbing FlightAware ADS-B
Sun 10:11:51 PM 32.6582 -94.6319 108° East 617 710 30,600 1,527 Climbing FlightAware ADS-B
Sun 10:11:58 PM 32.6509 -94.6104 112° Southeast 613 705 30,800 605 Climbing FlightAware ADS-B
Sun 10:15:49 PM 32.3030 -93.9612 122° Southeast 613 705 33,000 489 Climbing FlightAware ADS-B
Sun 10:16:28 PM 32.2395 -93.8545 125° Southeast 610 702 33,000  Level FlightAware ADS-B
Sun 10:16:59 PM 32.1891 -93.7700 125° Southeast 610 702 33,000  Level FlightAware ADS-B
Sun 10:17:32 PM 32.1355 -93.6805 125° Southeast 607 699 33,000  Level FlightAware ADS-B
Sun 10:18:03 PM 32.0849 -93.5965 125° Southeast 608 700 33,000  Level FlightAware ADS-B
Sun 10:21:11 PM 31.7792 -93.0924 125° Southeast 607 699 33,000  Level FlightAware ADS-B
Sun 10:22:10 PM 31.6818 -92.9330 126° Southeast 606 697 33,000  Level FlightAware ADS-B
Sun 10:23:02 PM 31.5990 -92.7963 125° Southeast 604 695 33,000  Level FlightAware ADS-B
Sun 10:23:32 PM 31.5505 -92.7158 125° Southeast 605 696 33,000  Level FlightAware ADS-B
Sun 10:24:32 PM 31.4538 -92.5559 125° Southeast 606 697 33,000 -50 Level FlightAware ADS-B
Sun 10:25:31 PM 31.3717 -92.4222 125° Southeast 604 695 32,900  Descending Houston Center
Sun 10:26:32 PM 31.2733 -92.2611 126° Southeast 607 699 33,000  Climbing Houston Center
Sun 10:27:34 PM 31.1750 -92.1011 126° Southeast 605 696 32,900  Descending Houston Center
Sun 10:28:35 PM 31.0614 -91.9161 126° Southeast 605 696 33,000 49 Climbing Houston Center
Sun 10:29:36 PM 30.9625 -91.7575 126° Southeast 604 695 33,000  Level Houston Center
Sun 10:30:37 PM 30.8636 -91.5983 126° Southeast 605 696 33,000  Level Houston Center
Sun 10:31:38 PM 30.7644 -91.4406 126° Southeast 605 696 33,000 -49 Level Houston Center
Sun 10:32:40 PM 30.6708 -91.2917 126° Southeast 604 695 32,900  Descending Houston Center
Sun 10:33:41 PM 30.5731 -91.1347 126° Southeast 601 692 33,000 49 Climbing Houston Center
Sun 10:34:42 PM 30.4758 -90.9781 126° Southeast 601 692 33,000  Level Houston Center
Sun 10:35:43 PM 30.3564 -90.7911 126° Southeast 602 693 33,000 -49 Level Houston Center
Sun 10:36:44 PM 30.2564 -90.6344 126° Southeast 607 699 32,900  Descending Houston Center
Sun 10:37:46 PM 30.1575 -90.4806 127° Southeast 602 693 33,000  Climbing Houston Center
Sun 10:38:47 PM 30.0594 -90.3267 126° Southeast 601 692 32,900  Descending Houston Center
Sun 10:39:48 PM 29.9600 -90.1736 127° Southeast 602 693 33,000 49 Climbing Houston Center
Sun 10:40:49 PM 29.8611 -90.0206 127° Southeast 602 693 33,000  Level Houston Center
Sun 10:41:50 PM 29.7575 -89.8728 129° Southeast 600 690 33,000  Level Houston Center
Sun 10:42:52 PM 29.6494 -89.7308 131° Southeast 596 686 33,000  Level Houston Center
Sun 10:43:53 PM 29.5214 -89.5561 130° Southeast 599 689 33,000  Level Houston Center
Sun 10:44:54 PM 29.4144 -89.4125 131° Southeast 597 687 33,000 -49 Level Houston Center
Sun 10:45:55 PM 29.3092 -89.2697 130° Southeast 590 679 32,900  Descending Houston Center
Sun 10:46:56 PM 29.2061 -89.1267 130° Southeast 584 672 33,000  Climbing Houston Center
Sun 10:47:57 PM 29.1592 -88.9472 107° East 586 674 32,900 -49 Descending Houston Center
Sun 10:48:58 PM 29.1086 -88.7664 108° East 595 685 32,900  Level Houston Center
Sun 10:50:00 PM 29.0567 -88.5894 109° East 593 682 32,900 49 Level Houston Center
Sun 10:51:01 PM 29.0125 -88.4083 106° East 593 682 33,000  Climbing Houston Center
Sun 10:53:03 PM 28.9094 -88.0361 107° East 593 682 32,900 -33 Descending Houston Center
Sun 10:54:04 PM 28.8303 -87.8711 119° Southeast 592 681 32,900 49 Level Houston Center
Sun 10:55:05 PM 28.7486 -87.7106 120° Southeast 588 677 33,000  Climbing Houston Center
Sun 10:56:06 PM 28.6669 -87.5489 120° Southeast 591 680 32,900  Descending Houston Center
Sun 10:57:07 PM 28.5678 -87.3558 120° Southeast 591 680 33,000 49 Climbing Houston Center
Sun 10:58:08 PM 28.4842 -87.1947 121° Southeast 593 682 33,000  Level Houston Center
Sun 10:59:09 PM 28.4006 -87.0342 121° Southeast 593 682 33,000 -50 Level Houston Center
Sun 11:00:08 PM 28.3197 -86.8794 121° Southeast 590 679 32,900 -50 Descending Jacksonville Center
Sun 11:01:08 PM 28.2369 -86.7208 121° Southeast 590 679 32,900  Level Jacksonville Center
Sun 11:02:08 PM 28.1558 -86.5647 120° Southeast 589 678 32,900 50 Level Jacksonville Center
Sun 11:03:08 PM 28.0708 -86.3969 120° Southeast 596 686 33,000  Climbing Jacksonville Center
Sun 11:04:08 PM 27.9897 -86.2392 120° Southeast 591 680 32,900  Descending Jacksonville Center
Sun 11:05:08 PM 27.9042 -86.0697 120° Southeast 591 680 33,000  Climbing Jacksonville Center
Sun 11:06:08 PM 27.8244 -85.9192 121° Southeast 586 674 32,900 -32 Descending Jacksonville Center
Sun 11:08:15 PM 27.6617 -85.5950 119° Southeast 572 658 32,900 32 Level Miami Center
Sun 11:09:17 PM 27.5656 -85.4264 123° Southeast 592 681 33,000 49 Climbing Miami Center
Sun 11:10:17 PM 27.4831 -85.2683 120° Southeast 592 681 33,000 -51 Level Miami Center
Sun 11:11:15 PM 27.4067 -85.1133 119° Southeast 583 671 32,900  Descending Miami Center
Sun 11:12:15 PM 27.3197 -84.9575 122° Southeast 583 671 33,000 50 Climbing Miami Center
Sun 11:13:14 PM 27.2386 -84.8028 120° Southeast 578 665 33,000 -50 Level Miami Center
Sun 11:14:14 PM 27.1572 -84.6503 121° Southeast 576 663 32,900  Descending Miami Center
Sun 11:15:15 PM 27.0742 -84.4911 120° Southeast 582 670 33,000  Climbing Miami Center
Sun 11:16:17 PM 26.9903 -84.3364 121° Southeast 582 670 32,900  Descending Miami Center
Sun 11:17:15 PM 26.9125 -84.1850 120° Southeast 582 670 33,000  Climbing Miami Center
Sun 11:18:16 PM 26.8306 -84.0311 121° Southeast 582 670 32,900 -50 Descending Miami Center
Sun 11:19:14 PM 26.7483 -83.8797 121° Southeast 582 670 32,900 50 Level Miami Center
Sun 11:20:15 PM 26.6619 -83.7258 122° Southeast 582 670 33,000 50 Climbing Miami Center
Sun 11:21:15 PM 26.5833 -83.5775 121° Southeast 582 670 33,000  Level Miami Center
Sun 11:22:16 PM 26.4986 -83.4219 121° Southeast 577 664 33,000 -50 Level Miami Center
Sun 11:23:14 PM 26.4175 -83.2736 121° Southeast 577 664 32,900 -51 Descending Miami Center
Sun 11:24:14 PM 26.3303 -83.1208 122° Southeast 582 670 32,900 15 Level Miami Center
Sun 11:29:47 PM 25.8712 -82.2917 122° Southeast 567 652 33,000 16 Climbing FlightAware ADS-B
Sun 11:30:22 PM 25.8193 -82.1992 122° Southeast 567 652 33,000  Level FlightAware ADS-B
Sun 11:35:06 PM 25.4317 -81.5149 122° Southeast 566 651 33,000 -17 Level FlightAware ADS-B
Sun 11:36:15 PM 25.3308 -81.3436 122° Southeast 566 651 32,900  Descending Miami Center
Sun 11:37:14 PM 25.2475 -81.1983 122° Southeast 571 657 33,000  Climbing Miami Center
Sun 11:38:14 PM 25.1639 -81.0531 122° Southeast 566 651 32,900  Descending Miami Center
Sun 11:39:17 PM 25.0803 -80.9081 122° Southeast 566 651 33,000 49 Climbing Miami Center
Sun 11:40:17 PM 24.9964 -80.7631 123° Southeast 566 651 33,000  Level Miami Center
Sun 11:41:15 PM 24.9103 -80.6183 123° Southeast 566 651 33,000 -50 Level Miami Center
Sun 11:42:16 PM 24.8283 -80.4739 122° Southeast 566 651 32,900 -50 Descending Miami Center
Sun 11:43:16 PM 24.7461 -80.3319 123° Southeast 560 644 32,900  Level Miami Center
Sun 11:44:14 PM 24.6617 -80.1903 123° Southeast 560 644 32,900 51 Level Miami Center
Sun 11:45:14 PM 24.5789 -80.0486 123° Southeast 555 639 33,000 50 Climbing Miami Center
Sun 11:46:14 PM 24.4942 -79.9050 123° Southeast 561 646 33,000  Level Miami Center
Sun 11:47:14 PM 24.4114 -79.7617 122° Southeast 556 640 33,000  Level Miami Center
Sun 11:48:14 PM 24.3306 -79.6183 122° Southeast 556 640 33,000  Level Miami Center
Sun 11:49:14 PM 24.2453 -79.4842 125° Southeast 550 633 33,000 -49 Level Miami Center
Sun 11:50:16 PM 24.1642 -79.3458 123° Southeast 550 633 32,900  Descending Miami Center
Sun 11:51:15 PM 24.0806 -79.2122 124° Southeast 550 633 33,000 50 Climbing Miami Center
Sun 11:52:17 PM 23.9969 -79.0811 125° Southeast 536 617 33,000  Level Miami Center
Sun 11:54:00 PM 24.2268 -79.1574 341° North  Level FlightAware Approximate
Mon 12:01:00 AM 25.1949 -79.5313 341° North  Level FlightAware Approximate
Mon 12:02:00 AM 25.3337 -79.5834 341° North  Level FlightAware Approximate
Mon 12:03:00 AM 25.4725 -79.6356 341° North  Level FlightAware Approximate
Mon 12:04:00 AM 25.6108 -79.6893 341° North  Level FlightAware Approximate
Mon 12:05:00 AM 25.7491 -79.7431 341° North  Level FlightAware Approximate
Mon 12:06:00 AM 25.8874 -79.7971 341° North  Level FlightAware Approximate
Mon 12:07:00 AM 26.0256 -79.8512 341° North  Level FlightAware Approximate
Mon 12:08:00 AM 26.1638 -79.9056 340° North  Level FlightAware Approximate
Mon 12:09:00 AM 26.3016 -79.9613 340° North  Level FlightAware Approximate
Mon 12:10:00 AM 26.4393 -80.0173 340° North  Level FlightAware Approximate
Mon 12:11:00 AM 26.5770 -80.0733 340° North  Level FlightAware Approximate
Mon 12:12:00 AM 26.6561 -80.0951 145° Southeast  Level FlightAware Approximate
Mon 12:13:00 AM 26.5364 -80.0005 145° Southeast  Level FlightAware Approximate
Mon 12:14:00 AM 26.4166 -79.9061 145° Southeast  Level FlightAware Approximate
Mon 12:15:00 AM 26.2968 -79.8119 145° Southeast  Level FlightAware Approximate
Mon 12:16:00 AM 26.1769 -79.7179 145° Southeast  Level FlightAware Approximate
Mon 12:17:00 AM 26.0569 -79.6241 145° Southeast  Level FlightAware Approximate
Mon 12:18:00 AM 25.9375 -79.5296 144° Southeast  Level FlightAware Approximate
Mon 12:19:00 AM 25.8189 -79.4339 144° Southeast  Level FlightAware Approximate
Mon 12:20:00 AM 25.7003 -79.3383 144° Southeast  Level FlightAware Approximate
Mon 12:21:00 AM 25.5816 -79.2430 144° Southeast  Level FlightAware Approximate
Mon 12:22:00 AM 25.4628 -79.1478 144° Southeast  Level FlightAware Approximate
Mon 12:23:00 AM 25.3440 -79.0528 144° Southeast  Level FlightAware Approximate
Mon 12:24:00 AM 25.2251 -78.9580 144° Southeast  Level FlightAware Approximate
Mon 12:25:00 AM 25.1061 -78.8634 144° Southeast  Level FlightAware Approximate
Mon 12:26:00 AM 24.9871 -78.7690 144° Southeast  Level FlightAware Approximate
Mon 12:27:00 AM 24.8678 -78.6752 145° Southeast  Level FlightAware Approximate
Mon 12:28:00 AM 24.7477 -78.5826 145° Southeast  Level FlightAware Approximate
Mon 12:29:00 AM 24.6276 -78.4903 145° Southeast  Level FlightAware Approximate
Mon 12:30:00 AM 24.5073 -78.3981 145° Southeast  Level FlightAware Approximate
Mon 12:31:00 AM 24.3871 -78.3061 145° Southeast  Level FlightAware Approximate
Mon 12:32:00 AM 24.2667 -78.2142 145° Southeast  Level FlightAware Approximate
Mon 12:33:00 AM 24.1464 -78.1226 145° Southeast  Level FlightAware Approximate
Mon 12:34:00 AM 24.0297 -78.0255 142° Southeast  Level FlightAware Approximate
Mon 12:35:00 AM 23.9109 -77.9315 145° Southeast  Level FlightAware Approximate
Mon 12:36:00 AM 23.7910 -77.8395 145° Southeast  Level FlightAware Approximate
Mon 12:37:00 AM 23.6709 -77.7476 145° Southeast  Level FlightAware Approximate
Mon 12:38:00 AM 23.5508 -77.6559 145° Southeast  Level FlightAware Approximate
Mon 12:39:00 AM 23.4307 -77.5644 145° Southeast  Level FlightAware Approximate
Mon 12:40:00 AM 23.3105 -77.4731 145° Southeast  Level FlightAware Approximate
Mon 12:41:00 AM 23.1903 -77.3819 145° Southeast  Level FlightAware Approximate
Mon 12:42:00 AM 23.0700 -77.2908 145° Southeast  Level FlightAware Approximate
Mon 12:43:00 AM 22.9496 -77.2000 145° Southeast  Level FlightAware Approximate
Mon 12:44:00 AM 22.8292 -77.1092 145° Southeast  Level FlightAware Approximate
Mon 12:45:00 AM 22.7087 -77.0187 145° Southeast  Level FlightAware Approximate
Mon 12:46:00 AM 22.5882 -76.9283 145° Southeast  Level FlightAware Approximate
Mon 12:47:00 AM 22.4677 -76.8381 145° Southeast  Level FlightAware Approximate
Mon 12:48:00 AM 22.3471 -76.7480 145° Southeast  Level FlightAware Approximate
Mon 12:49:00 AM 22.2264 -76.6581 145° Southeast  Level FlightAware Approximate
Mon 12:50:00 AM 22.1057 -76.5683 145° Southeast  Level FlightAware Approximate
Mon 12:51:00 AM 21.9849 -76.4787 145° Southeast  Level FlightAware Approximate
Mon 12:52:00 AM 21.8641 -76.3892 145° Southeast  Level FlightAware Approximate
Mon 12:53:00 AM 21.7433 -76.2999 146° Southeast  Level FlightAware Approximate
Mon 12:54:00 AM 21.6224 -76.2108 146° Southeast  Level FlightAware Approximate
Mon 12:55:00 AM 21.5014 -76.1217 146° Southeast  Level FlightAware Approximate
Mon 12:56:00 AM 21.3804 -76.0329 146° Southeast  Level FlightAware Approximate
Mon 12:57:00 AM 21.2594 -75.9442 146° Southeast  Level FlightAware Approximate
Mon 12:58:00 AM 21.1383 -75.8556 146° Southeast  Level FlightAware Approximate
Mon 12:59:00 AM 21.0172 -75.7672 146° Southeast  Level FlightAware Approximate
Mon 01:00:00 AM 20.8960 -75.6789 146° Southeast  Level FlightAware Approximate
Mon 01:01:00 AM 20.7748 -75.5908 146° Southeast  Level FlightAware Approximate
Mon 01:02:00 AM 20.6535 -75.5028 146° Southeast  Level FlightAware Approximate
Mon 01:03:00 AM 20.5322 -75.4149 146° Southeast  Level FlightAware Approximate
Mon 01:04:00 AM 20.4108 -75.3272 146° Southeast  Level FlightAware Approximate
Mon 01:05:00 AM 20.2894 -75.2396 146° Southeast  Level FlightAware Approximate
Mon 01:06:00 AM 20.1680 -75.1522 146° Southeast  Level FlightAware Approximate
Mon 01:07:00 AM 20.0465 -75.0649 146° Southeast  Level FlightAware Approximate
Mon 01:08:00 AM 19.9250 -74.9777 146° Southeast  Level FlightAware Approximate
Mon 01:09:00 AM 19.8034 -74.8907 146° Southeast  Level FlightAware Approximate
Mon 01:10:00 AM 19.6818 -74.8038 146° Southeast  Level FlightAware Approximate
Mon 01:11:00 AM 19.5601 -74.7170 146° Southeast  Level FlightAware Approximate
Mon 01:12:00 AM 19.4384 -74.6303 146° Southeast  Level FlightAware Approximate
Mon 01:13:00 AM 19.3167 -74.5438 146° Southeast  Level FlightAware Approximate
Mon 01:14:00 AM 19.1949 -74.4575 146° Southeast  Level FlightAware Approximate
Mon 01:15:00 AM 19.0731 -74.3712 146° Southeast  Level FlightAware Approximate
Mon 01:16:00 AM 18.9515 -74.2847 146° Southeast  Level FlightAware Approximate
Mon 01:17:00 AM 18.8298 -74.1983 146° Southeast  Level FlightAware Approximate
Mon 01:18:00 AM 18.7081 -74.1121 146° Southeast  Level FlightAware Approximate
Mon 01:19:00 AM 18.5864 -74.0259 146° Southeast  Level FlightAware Approximate
Mon 01:20:00 AM 18.4646 -73.9399 146° Southeast  Level FlightAware Approximate
Mon 01:21:00 AM 18.3428 -73.8540 146° Southeast  Level FlightAware Approximate
Mon 01:22:00 AM 18.2209 -73.7682 146° Southeast  Level FlightAware Approximate
Mon 01:23:00 AM 18.0990 -73.6826 146° Southeast  Level FlightAware Approximate
Mon 01:24:00 AM 17.9771 -73.5970 146° Southeast  Level FlightAware Approximate
Mon 01:25:00 AM 17.8552 -73.5116 146° Southeast  Level FlightAware Approximate
Mon 01:26:00 AM 17.7332 -73.4263 146° Southeast  Level FlightAware Approximate
Mon 01:27:00 AM 17.6111 -73.3411 146° Southeast  Level FlightAware Approximate
Mon 01:28:00 AM 17.4890 -73.2561 146° Southeast  Level FlightAware Approximate
Mon 01:29:00 AM 17.3669 -73.1711 146° Southeast  Level FlightAware Approximate
Mon 01:30:00 AM 17.2448 -73.0863 146° Southeast  Level FlightAware Approximate
Mon 01:31:00 AM 17.1226 -73.0015 146° Southeast  Level FlightAware Approximate
Mon 01:32:00 AM 17.0004 -72.9169 146° Southeast  Level FlightAware Approximate
Mon 01:33:00 AM 16.8780 -72.8325 147° Southeast  Level FlightAware Approximate
Mon 01:34:00 AM 16.7557 -72.7483 147° Southeast  Level FlightAware Approximate
Mon 01:35:00 AM 16.6333 -72.6641 147° Southeast  Level FlightAware Approximate
Mon 01:36:00 AM 16.5109 -72.5800 147° Southeast  Level FlightAware Approximate
Mon 01:37:00 AM 16.3884 -72.4960 147° Southeast  Level FlightAware Approximate
Mon 01:38:00 AM 16.2659 -72.4122 147° Southeast  Level FlightAware Approximate
Mon 01:39:00 AM 16.1434 -72.3284 147° Southeast  Level FlightAware Approximate
Mon 01:40:00 AM 16.0208 -72.2448 147° Southeast  Level FlightAware Approximate
Mon 01:41:00 AM 15.8982 -72.1612 147° Southeast  Level FlightAware Approximate
Mon 01:42:00 AM 15.7756 -72.0778 147° Southeast  Level FlightAware Approximate
Mon 01:43:00 AM 15.6530 -71.9945 147° Southeast  Level FlightAware Approximate
Mon 01:44:00 AM 15.5303 -71.9112 147° Southeast  Level FlightAware Approximate
Mon 01:45:00 AM 15.4075 -71.8281 147° Southeast  Level FlightAware Approximate
Mon 01:46:00 AM 15.2848 -71.7450 147° Southeast  Level FlightAware Approximate
Mon 01:47:00 AM 15.1620 -71.6621 147° Southeast  Level FlightAware Approximate
Mon 01:48:00 AM 15.0392 -71.5792 147° Southeast  Level FlightAware Approximate
Mon 01:49:00 AM 14.9164 -71.4965 147° Southeast  Level FlightAware Approximate
Mon 01:50:00 AM 14.7935 -71.4138 147° Southeast  Level FlightAware Approximate
Mon 01:51:00 AM 14.6706 -71.3312 147° Southeast  Level FlightAware Approximate
Mon 01:52:00 AM 14.5477 -71.2487 147° Southeast  Level FlightAware Approximate
Mon 01:53:00 AM 14.4247 -71.1664 147° Southeast  Level FlightAware Approximate
Mon 01:54:00 AM 14.3017 -71.0841 147° Southeast  Level FlightAware Approximate
Mon 01:55:00 AM 14.1789 -71.0020 147° Southeast  Level FlightAware Approximate
Mon 01:56:00 AM 14.0561 -70.9201 147° Southeast  Level FlightAware Approximate
Mon 01:57:00 AM 13.9333 -70.8382 147° Southeast  Level FlightAware Approximate
Mon 01:58:00 AM 13.8104 -70.7564 147° Southeast  Level FlightAware Approximate
Mon 01:59:00 AM 13.6875 -70.6747 147° Southeast  Level FlightAware Approximate
Mon 02:00:00 AM 13.5646 -70.5931 147° Southeast  Level FlightAware Approximate
Mon 02:01:00 AM 13.4416 -70.5115 147° Southeast  Level FlightAware Approximate
Mon 02:02:00 AM 13.3186 -70.4301 147° Southeast  Level FlightAware Approximate
Mon 02:03:00 AM 13.1956 -70.3487 147° Southeast  Level FlightAware Approximate
Mon 02:04:00 AM 13.0726 -70.2674 147° Southeast  Level FlightAware Approximate
Mon 02:05:00 AM 12.9495 -70.1862 147° Southeast  Level FlightAware Approximate
Mon 02:06:00 AM 12.8265 -70.1051 147° Southeast  Level FlightAware Approximate
Mon 02:07:00 AM 12.7033 -70.0240 147° Southeast  Level FlightAware Approximate
Mon 02:08:00 AM 12.5802 -69.9431 147° Southeast  Level FlightAware Approximate
Mon 02:09:00 AM 12.4571 -69.8622 147° Southeast  Level FlightAware Approximate
Mon 02:10:00 AM 12.3339 -69.7814 147° Southeast  Level FlightAware Approximate
Mon 02:11:00 AM 12.2107 -69.7006 147° Southeast  Level FlightAware Approximate
Mon 02:12:00 AM 12.0872 -69.6204 148° Southeast  Level FlightAware Approximate
Mon 02:13:00 AM 11.9633 -69.5408 148° Southeast  Level FlightAware Approximate
Mon 02:14:00 AM 11.8393 -69.4614 148° Southeast  Level FlightAware Approximate
Mon 02:15:00 AM 11.7154 -69.3820 148° Southeast  Level FlightAware Approximate
Mon 02:16:00 AM 11.5914 -69.3027 148° Southeast  Level FlightAware Approximate
Mon 02:17:00 AM 11.4674 -69.2235 148° Southeast  Level FlightAware Approximate
Mon 02:18:00 AM 11.3434 -69.1443 148° Southeast  Level FlightAware Approximate
Mon 02:19:00 AM 11.2193 -69.0652 148° Southeast  Level FlightAware Approximate
Mon 02:20:00 AM 11.0953 -68.9862 148° Southeast  Level FlightAware Approximate
Mon 02:21:00 AM 10.9712 -68.9072 148° Southeast  Level FlightAware Approximate
Mon 02:22:00 AM 10.8469 -68.8282 148° Southeast  Level FlightAware Approximate
Mon 02:23:00 AM 10.7228 -68.7487 147° Southeast  Level FlightAware Approximate
Mon 02:24:00 AM 10.5998 -68.6676 147° Southeast  Level FlightAware Approximate
Mon 02:25:00 AM 10.4769 -68.5865 147° Southeast  Level FlightAware Approximate
Mon 02:26:00 AM 10.3539 -68.5055 147° Southeast  Level FlightAware Approximate
Mon 02:27:00 AM 10.2308 -68.4245 147° Southeast  Level FlightAware Approximate
Mon 02:28:00 AM 10.1077 -68.3437 147° Southeast  Level FlightAware Approximate
Mon 02:29:00 AM 9.9841 -68.2637 148° Southeast  Level FlightAware Approximate
Mon 02:30:00 AM 9.8602 -68.1842 148° Southeast  Level FlightAware Approximate
Mon 02:31:00 AM 9.7363 -68.1048 148° Southeast  Level FlightAware Approximate
Mon 02:32:00 AM 9.6124 -68.0255 148° Southeast  Level FlightAware Approximate
Mon 02:33:00 AM 9.4884 -67.9462 148° Southeast  Level FlightAware Approximate
Mon 02:34:00 AM 9.3644 -67.8669 148° Southeast  Level FlightAware Approximate
Mon 02:35:00 AM 9.2404 -67.7878 148° Southeast  Level FlightAware Approximate
Mon 02:36:00 AM 9.1164 -67.7086 148° Southeast  Level FlightAware Approximate
Mon 02:37:00 AM 8.9924 -67.6296 148° Southeast  Level FlightAware Approximate
Mon 02:38:00 AM 8.8683 -67.5506 148° Southeast  Level FlightAware Approximate
Mon 02:39:00 AM 8.7443 -67.4716 148° Southeast  Level FlightAware Approximate
Mon 02:40:00 AM 8.6202 -67.3927 148° Southeast  Level FlightAware Approximate
Mon 02:41:00 AM 8.4961 -67.3138 148° Southeast  Level FlightAware Approximate
Mon 02:42:00 AM 8.3720 -67.2350 148° Southeast  Level FlightAware Approximate
Mon 02:43:00 AM 8.2478 -67.1563 148° Southeast  Level FlightAware Approximate
Mon 02:44:00 AM 8.1237 -67.0776 148° Southeast  Level FlightAware Approximate
Mon 02:45:00 AM 7.9995 -66.9989 148° Southeast  Level FlightAware Approximate
Mon 02:46:00 AM 7.8754 -66.9203 148° Southeast  Level FlightAware Approximate
Mon 02:47:00 AM 7.7512 -66.8417 148° Southeast  Level FlightAware Approximate
Mon 02:48:00 AM 7.6270 -66.7632 148° Southeast  Level FlightAware Approximate
Mon 02:49:00 AM 7.5027 -66.6847 148° Southeast  Level FlightAware Approximate
Mon 02:50:00 AM 7.3785 -66.6063 148° Southeast  Level FlightAware Approximate
Mon 02:51:00 AM 7.2543 -66.5279 148° Southeast  Level FlightAware Approximate
Mon 02:52:00 AM 7.1300 -66.4496 148° Southeast  Level FlightAware Approximate
Mon 02:53:00 AM 7.0057 -66.3713 148° Southeast  Level FlightAware Approximate
Mon 02:54:00 AM 6.8815 -66.2931 148° Southeast  Level FlightAware Approximate
Mon 02:55:00 AM 6.7572 -66.2148 148° Southeast  Level FlightAware Approximate
Mon 02:56:00 AM 6.6328 -66.1367 148° Southeast  Level FlightAware Approximate
Mon 02:57:00 AM 6.5085 -66.0585 148° Southeast  Level FlightAware Approximate
Mon 02:58:00 AM 6.3842 -65.9805 148° Southeast  Level FlightAware Approximate
Mon 02:59:00 AM 6.2598 -65.9024 148° Southeast  Level FlightAware Approximate
Mon 03:00:00 AM 6.1355 -65.8244 148° Southeast  Level FlightAware Approximate
Mon 03:01:00 AM 6.0111 -65.7464 148° Southeast  Level FlightAware Approximate
Mon 03:02:00 AM 5.8867 -65.6684 148° Southeast  Level FlightAware Approximate
Mon 03:03:00 AM 5.7626 -65.5907 148° Southeast  Level FlightAware Approximate
Mon 03:04:00 AM 5.6384 -65.5129 148° Southeast  Level FlightAware Approximate
Mon 03:05:00 AM 5.5142 -65.4352 148° Southeast  Level FlightAware Approximate
Mon 03:06:00 AM 5.3900 -65.3576 148° Southeast  Level FlightAware Approximate
Mon 03:07:00 AM 5.2658 -65.2799 148° Southeast  Level FlightAware Approximate
Mon 03:08:00 AM 5.1416 -65.2023 148° Southeast  Level FlightAware Approximate
Mon 03:09:00 AM 5.0173 -65.1247 148° Southeast  Level FlightAware Approximate
Mon 03:10:00 AM 4.8931 -65.0472 148° Southeast  Level FlightAware Approximate
Mon 03:11:00 AM 4.7688 -64.9697 148° Southeast  Level FlightAware Approximate
Mon 03:12:00 AM 4.6446 -64.8922 148° Southeast  Level FlightAware Approximate
Mon 03:13:00 AM 4.5203 -64.8147 148° Southeast  Level FlightAware Approximate
Mon 03:14:00 AM 4.3961 -64.7373 148° Southeast  Level FlightAware Approximate
Mon 03:15:00 AM 4.2718 -64.6599 148° Southeast  Level FlightAware Approximate
Mon 03:16:00 AM 4.1475 -64.5825 148° Southeast  Level FlightAware Approximate
Mon 03:17:00 AM 4.0232 -64.5051 148° Southeast  Level FlightAware Approximate
Mon 03:18:00 AM 3.8989 -64.4278 148° Southeast  Level FlightAware Approximate
Mon 03:19:00 AM 3.7746 -64.3504 148° Southeast  Level FlightAware Approximate
Mon 03:20:00 AM 3.6503 -64.2731 148° Southeast  Level FlightAware Approximate
Mon 03:21:00 AM 3.5260 -64.1959 148° Southeast  Level FlightAware Approximate
Mon 03:22:00 AM 3.4016 -64.1186 148° Southeast  Level FlightAware Approximate
Mon 03:23:00 AM 3.2773 -64.0414 148° Southeast  Level FlightAware Approximate
Mon 03:24:00 AM 3.1530 -63.9642 148° Southeast  Level FlightAware Approximate
Mon 03:25:00 AM 3.0286 -63.8870 148° Southeast  Level FlightAware Approximate
Mon 03:26:00 AM 2.9043 -63.8098 148° Southeast  Level FlightAware Approximate
Mon 03:27:00 AM 2.7799 -63.7327 148° Southeast  Level FlightAware Approximate
Mon 03:28:00 AM 2.6556 -63.6555 148° Southeast  Level FlightAware Approximate
Mon 03:29:00 AM 2.5312 -63.5784 148° Southeast  Level FlightAware Approximate
Mon 03:30:00 AM 2.4070 -63.5014 148° Southeast  Level FlightAware Approximate
Mon 03:31:00 AM 2.2829 -63.4244 148° Southeast  Level FlightAware Approximate
Mon 03:32:00 AM 2.1587 -63.3475 148° Southeast  Level FlightAware Approximate
Mon 03:33:00 AM 2.0346 -63.2706 148° Southeast  Level FlightAware Approximate
Mon 03:34:00 AM 1.9104 -63.1936 148° Southeast  Level FlightAware Approximate
Mon 03:35:00 AM 1.7862 -63.1167 148° Southeast  Level FlightAware Approximate
Mon 03:36:00 AM 1.6621 -63.0398 148° Southeast  Level FlightAware Approximate
Mon 03:37:00 AM 1.5379 -62.9630 148° Southeast  Level FlightAware Approximate
Mon 03:38:00 AM 1.4137 -62.8861 148° Southeast  Level FlightAware Approximate
Mon 03:39:00 AM 1.2895 -62.8092 148° Southeast  Level FlightAware Approximate
Mon 03:40:00 AM 1.1654 -62.7323 148° Southeast  Level FlightAware Approximate
Mon 03:41:00 AM 1.0412 -62.6555 148° Southeast  Level FlightAware Approximate
Mon 03:42:00 AM 0.9170 -62.5786 148° Southeast  Level FlightAware Approximate
Mon 03:43:00 AM 0.7928 -62.5018 148° Southeast  Level FlightAware Approximate
Mon 03:44:00 AM 0.6686 -62.4249 148° Southeast  Level FlightAware Approximate
Mon 03:45:00 AM 0.5444 -62.3481 148° Southeast  Level FlightAware Approximate
Mon 03:46:00 AM 0.4203 -62.2713 148° Southeast  Level FlightAware Approximate
Mon 03:47:00 AM 0.2961 -62.1944 148° Southeast  Level FlightAware Approximate
Mon 03:48:00 AM 0.1719 -62.1176 148° Southeast  Level FlightAware Approximate
Mon 03:49:00 AM 0.0477 -62.0407 148° Southeast  Level FlightAware Approximate
Mon 03:50:00 AM -0.0765 -61.9639 148° Southeast  Level FlightAware Approximate
Mon 03:51:00 AM -0.2007 -61.8871 148° Southeast  Level FlightAware Approximate
Mon 03:52:00 AM -0.3249 -61.8103 148° Southeast  Level FlightAware Approximate
Mon 03:53:00 AM -0.4491 -61.7334 148° Southeast  Level FlightAware Approximate
Mon 03:54:00 AM -0.5733 -61.6566 148° Southeast  Level FlightAware Approximate
Mon 03:55:00 AM -0.6974 -61.5797 148° Southeast  Level FlightAware Approximate
Mon 03:56:00 AM -0.8216 -61.5029 148° Southeast  Level FlightAware Approximate
Mon 03:57:00 AM -0.9458 -61.4260 148° Southeast  Level FlightAware Approximate
Mon 03:58:00 AM -1.0700 -61.3492 148° Southeast  Level FlightAware Approximate
Mon 03:59:00 AM -1.1942 -61.2723 148° Southeast  Level FlightAware Approximate
Mon 04:00:00 AM -1.3184 -61.1954 148° Southeast  Level FlightAware Approximate
Mon 04:01:00 AM -1.4425 -61.1186 148° Southeast  Level FlightAware Approximate
Mon 04:02:00 AM -1.5667 -61.0417 148° Southeast  Level FlightAware Approximate
Mon 04:03:00 AM -1.6909 -60.9648 148° Southeast  Level FlightAware Approximate
Mon 04:04:00 AM -1.8151 -60.8879 148° Southeast  Level FlightAware Approximate
Mon 04:05:00 AM -1.9392 -60.8110 148° Southeast  Level FlightAware Approximate
Mon 04:06:00 AM -2.0634 -60.7341 148° Southeast  Level FlightAware Approximate
Mon 04:07:00 AM -2.1875 -60.6571 148° Southeast  Level FlightAware Approximate
Mon 04:08:00 AM -2.3117 -60.5802 148° Southeast  Level FlightAware Approximate
Mon 04:09:00 AM -2.4358 -60.5032 148° Southeast  Level FlightAware Approximate
Mon 04:10:00 AM -2.5600 -60.4262 148° Southeast  Level FlightAware Approximate
Mon 04:11:00 AM -2.6841 -60.3492 148° Southeast  Level FlightAware Approximate
Mon 04:12:00 AM -2.8083 -60.2722 148° Southeast  Level FlightAware Approximate
Mon 04:13:00 AM -2.9324 -60.1952 148° Southeast  Level FlightAware Approximate
Mon 04:14:00 AM -3.0565 -60.1181 148° Southeast  Level FlightAware Approximate
Mon 04:15:00 AM -3.1806 -60.0411 148° Southeast  Level FlightAware Approximate
Mon 04:16:00 AM -3.3047 -59.9640 148° Southeast  Level FlightAware Approximate
Mon 04:17:00 AM -3.4289 -59.8869 148° Southeast  Level FlightAware Approximate
Mon 04:18:00 AM -3.5530 -59.8098 148° Southeast  Level FlightAware Approximate
Mon 04:19:00 AM -3.6771 -59.7327 148° Southeast  Level FlightAware Approximate
Mon 04:20:00 AM -3.8012 -59.6555 148° Southeast  Level FlightAware Approximate
Mon 04:21:00 AM -3.9252 -59.5783 148° Southeast  Level FlightAware Approximate
Mon 04:22:00 AM -4.0493 -59.5011 148° Southeast  Level FlightAware Approximate
Mon 04:23:00 AM -4.1734 -59.4239 148° Southeast  Level FlightAware Approximate
Mon 04:24:00 AM -4.2974 -59.3466 148° Southeast  Level FlightAware Approximate
Mon 04:25:00 AM -4.4215 -59.2693 148° Southeast  Level FlightAware Approximate
Mon 04:26:00 AM -4.5455 -59.1920 148° Southeast  Level FlightAware Approximate
Mon 04:27:00 AM -4.6696 -59.1147 148° Southeast  Level FlightAware Approximate
Mon 04:28:00 AM -4.7936 -59.0373 148° Southeast  Level FlightAware Approximate
Mon 04:29:00 AM -4.9176 -58.9600 148° Southeast  Level FlightAware Approximate
Mon 04:30:00 AM -5.0416 -58.8825 148° Southeast  Level FlightAware Approximate
Mon 04:31:00 AM -5.1656 -58.8051 148° Southeast  Level FlightAware Approximate
Mon 04:32:00 AM -5.2896 -58.7276 148° Southeast  Level FlightAware Approximate
Mon 04:33:00 AM -5.4136 -58.6501 148° Southeast  Level FlightAware Approximate
Mon 04:34:00 AM -5.5376 -58.5726 148° Southeast  Level FlightAware Approximate
Mon 04:35:00 AM -5.6615 -58.4950 148° Southeast  Level FlightAware Approximate
Mon 04:36:00 AM -5.7855 -58.4174 148° Southeast  Level FlightAware Approximate
Mon 04:37:00 AM -5.9094 -58.3398 148° Southeast  Level FlightAware Approximate
Mon 04:38:00 AM -6.0333 -58.2621 148° Southeast  Level FlightAware Approximate
Mon 04:39:00 AM -6.1573 -58.1844 148° Southeast  Level FlightAware Approximate
Mon 04:40:00 AM -6.2812 -58.1066 148° Southeast  Level FlightAware Approximate
Mon 04:41:00 AM -6.4051 -58.0289 148° Southeast  Level FlightAware Approximate
Mon 04:42:00 AM -6.5290 -57.9510 148° Southeast  Level FlightAware Approximate
Mon 04:43:00 AM -6.6528 -57.8732 148° Southeast  Level FlightAware Approximate
Mon 04:44:00 AM -6.7767 -57.7953 148° Southeast  Level FlightAware Approximate
Mon 04:45:00 AM -6.9005 -57.7173 148° Southeast  Level FlightAware Approximate
Mon 04:46:00 AM -7.0244 -57.6394 148° Southeast  Level FlightAware Approximate
Mon 04:47:00 AM -7.1482 -57.5613 148° Southeast  Level FlightAware Approximate
Mon 04:48:00 AM -7.2720 -57.4833 148° Southeast  Level FlightAware Approximate
Mon 04:49:00 AM -7.3958 -57.4052 148° Southeast  Level FlightAware Approximate
Mon 04:50:00 AM -7.5196 -57.3270 148° Southeast  Level FlightAware Approximate
Mon 04:51:00 AM -7.6434 -57.2488 148° Southeast  Level FlightAware Approximate
Mon 04:52:00 AM -7.7671 -57.1706 148° Southeast  Level FlightAware Approximate
Mon 04:53:00 AM -7.8908 -57.0923 148° Southeast  Level FlightAware Approximate
Mon 04:54:00 AM -8.0146 -57.0140 148° Southeast  Level FlightAware Approximate
Mon 04:55:00 AM -8.1383 -56.9356 148° Southeast  Level FlightAware Approximate
Mon 04:56:00 AM -8.2620 -56.8572 148° Southeast  Level FlightAware Approximate
Mon 04:57:00 AM -8.3857 -56.7787 148° Southeast  Level FlightAware Approximate
Mon 04:58:00 AM -8.5093 -56.7002 148° Southeast  Level FlightAware Approximate
Mon 04:59:00 AM -8.6330 -56.6216 148° Southeast  Level FlightAware Approximate
Mon 05:00:00 AM -8.7566 -56.5430 148° Southeast  Level FlightAware Approximate
Mon 05:01:00 AM -8.8802 -56.4643 148° Southeast  Level FlightAware Approximate
Mon 05:02:00 AM -9.0038 -56.3856 148° Southeast  Level FlightAware Approximate
Mon 05:03:00 AM -9.1274 -56.3068 148° Southeast  Level FlightAware Approximate
Mon 05:04:00 AM -9.2510 -56.2279 148° Southeast  Level FlightAware Approximate
Mon 05:05:00 AM -9.3745 -56.1490 148° Southeast  Level FlightAware Approximate
Mon 05:06:00 AM -9.4980 -56.0701 148° Southeast  Level FlightAware Approximate
Mon 05:07:00 AM -9.6216 -55.9911 148° Southeast  Level FlightAware Approximate
Mon 05:08:00 AM -9.7451 -55.9120 148° Southeast  Level FlightAware Approximate
Mon 05:09:00 AM -9.8685 -55.8329 148° Southeast  Level FlightAware Approximate
Mon 05:10:00 AM -9.9920 -55.7537 148° Southeast  Level FlightAware Approximate
Mon 05:11:00 AM -10.1154 -55.6744 148° Southeast  Level FlightAware Approximate
Mon 05:12:00 AM -10.2389 -55.5951 148° Southeast  Level FlightAware Approximate
Mon 05:13:00 AM -10.3623 -55.5157 148° Southeast  Level FlightAware Approximate
Mon 05:14:00 AM -10.4856 -55.4363 148° Southeast  Level FlightAware Approximate
Mon 05:15:00 AM -10.6090 -55.3568 148° Southeast  Level FlightAware Approximate
Mon 05:16:00 AM -10.7323 -55.2772 148° Southeast  Level FlightAware Approximate
Mon 05:17:00 AM -10.8557 -55.1976 148° Southeast  Level FlightAware Approximate
Mon 05:18:00 AM -10.9790 -55.1179 148° Southeast  Level FlightAware Approximate
Mon 05:19:00 AM -11.1022 -55.0382 148° Southeast  Level FlightAware Approximate
Mon 05:20:00 AM -11.2255 -54.9584 148° Southeast  Level FlightAware Approximate
Mon 05:21:00 AM -11.3487 -54.8785 148° Southeast  Level FlightAware Approximate
Mon 05:22:00 AM -11.4720 -54.7985 148° Southeast  Level FlightAware Approximate
Mon 05:23:00 AM -11.5952 -54.7185 148° Southeast  Level FlightAware Approximate
Mon 05:24:00 AM -11.7183 -54.6384 148° Southeast  Level FlightAware Approximate
Mon 05:25:00 AM -11.8415 -54.5582 147° Southeast  Level FlightAware Approximate
Mon 05:26:00 AM -11.9646 -54.4780 147° Southeast  Level FlightAware Approximate
Mon 05:27:00 AM -12.0877 -54.3976 147° Southeast  Level FlightAware Approximate
Mon 05:28:00 AM -12.2108 -54.3172 147° Southeast  Level FlightAware Approximate
Mon 05:29:00 AM -12.3339 -54.2368 147° Southeast  Level FlightAware Approximate
Mon 05:30:00 AM -12.4569 -54.1562 147° Southeast  Level FlightAware Approximate
Mon 05:31:00 AM -12.5799 -54.0756 147° Southeast  Level FlightAware Approximate
Mon 05:32:00 AM -12.7029 -53.9949 147° Southeast  Level FlightAware Approximate
Mon 05:33:00 AM -12.8259 -53.9141 147° Southeast  Level FlightAware Approximate
Mon 05:34:00 AM -12.9488 -53.8333 147° Southeast  Level FlightAware Approximate
Mon 05:35:00 AM -13.0715 -53.7525 147° Southeast  Level FlightAware Approximate
Mon 05:36:00 AM -13.1942 -53.6716 147° Southeast  Level FlightAware Approximate
Mon 05:37:00 AM -13.3168 -53.5907 147° Southeast  Level FlightAware Approximate
Mon 05:38:00 AM -13.4394 -53.5097 147° Southeast  Level FlightAware Approximate
Mon 05:39:00 AM -13.5620 -53.4285 147° Southeast  Level FlightAware Approximate
Mon 05:40:00 AM -13.6846 -53.3473 147° Southeast  Level FlightAware Approximate
Mon 05:41:00 AM -13.8071 -53.2661 147° Southeast  Level FlightAware Approximate
Mon 05:42:00 AM -13.9296 -53.1847 147° Southeast  Level FlightAware Approximate
Mon 05:43:00 AM -14.0521 -53.1032 147° Southeast  Level FlightAware Approximate
Mon 05:44:00 AM -14.1746 -53.0217 147° Southeast  Level FlightAware Approximate
Mon 05:45:00 AM -14.2970 -52.9401 147° Southeast  Level FlightAware Approximate
Mon 05:46:00 AM -14.4194 -52.8583 147° Southeast  Level FlightAware Approximate
Mon 05:47:00 AM -14.5418 -52.7765 147° Southeast  Level FlightAware Approximate
Mon 05:48:00 AM -14.6641 -52.6946 147° Southeast  Level FlightAware Approximate
Mon 05:49:00 AM -14.7865 -52.6127 147° Southeast  Level FlightAware Approximate
Mon 05:50:00 AM -14.9087 -52.5306 147° Southeast  Level FlightAware Approximate
Mon 05:51:00 AM -15.0310 -52.4484 147° Southeast  Level FlightAware Approximate
Mon 05:52:00 AM -15.1532 -52.3661 147° Southeast  Level FlightAware Approximate
Mon 05:53:00 AM -15.2754 -52.2837 147° Southeast  Level FlightAware Approximate
Mon 05:54:00 AM -15.3976 -52.2013 147° Southeast  Level FlightAware Approximate
Mon 05:55:00 AM -15.5197 -52.1187 147° Southeast  Level FlightAware Approximate
Mon 05:56:00 AM -15.6419 -52.0361 147° Southeast  Level FlightAware Approximate
Mon 05:57:00 AM -15.7639 -51.9533 147° Southeast  Level FlightAware Approximate
Mon 05:58:00 AM -15.8860 -51.8704 147° Southeast  Level FlightAware Approximate
Mon 05:59:00 AM -16.0080 -51.7875 147° Southeast  Level FlightAware Approximate
Mon 06:00:00 AM -16.1300 -51.7044 147° Southeast  Level FlightAware Approximate
Mon 06:01:00 AM -16.2519 -51.6213 147° Southeast  Level FlightAware Approximate
Mon 06:02:00 AM -16.3738 -51.5380 147° Southeast  Level FlightAware Approximate
Mon 06:03:00 AM -16.4957 -51.4546 147° Southeast  Level FlightAware Approximate
Mon 06:04:00 AM -16.6176 -51.3712 147° Southeast  Level FlightAware Approximate
Mon 06:05:00 AM -16.7394 -51.2876 147° Southeast  Level FlightAware Approximate
Mon 06:06:00 AM -16.8612 -51.2039 147° Southeast  Level FlightAware Approximate
Mon 06:07:00 AM -16.9829 -51.1201 147° Southeast  Level FlightAware Approximate
Mon 06:08:00 AM -17.1047 -51.0362 147° Southeast  Level FlightAware Approximate
Mon 06:09:00 AM -17.2263 -50.9522 147° Southeast  Level FlightAware Approximate
Mon 06:10:00 AM -17.3480 -50.8681 147° Southeast  Level FlightAware Approximate
Mon 06:11:00 AM -17.4696 -50.7839 147° Southeast  Level FlightAware Approximate
Mon 06:12:00 AM -17.5912 -50.6995 147° Southeast  Level FlightAware Approximate
Mon 06:13:00 AM -17.7127 -50.6151 147° Southeast  Level FlightAware Approximate
Mon 06:14:00 AM -17.8342 -50.5305 146° Southeast  Level FlightAware Approximate
Mon 06:15:00 AM -17.9557 -50.4458 146° Southeast  Level FlightAware Approximate
Mon 06:16:00 AM -18.0771 -50.3610 146° Southeast  Level FlightAware Approximate
Mon 06:17:00 AM -18.1985 -50.2761 146° Southeast  Level FlightAware Approximate
Mon 06:18:00 AM -18.3199 -50.1910 146° Southeast  Level FlightAware Approximate
Mon 06:19:00 AM -18.4412 -50.1059 146° Southeast  Level FlightAware Approximate
Mon 06:20:00 AM -18.5625 -50.0206 146° Southeast  Level FlightAware Approximate
Mon 06:21:00 AM -18.6837 -49.9352 146° Southeast  Level FlightAware Approximate
Mon 06:22:00 AM -18.8049 -49.8497 146° Southeast  Level FlightAware Approximate
Mon 06:23:00 AM -18.9261 -49.7640 146° Southeast  Level FlightAware Approximate
Mon 06:24:00 AM -19.0472 -49.6782 146° Southeast  Level FlightAware Approximate
Mon 06:25:00 AM -19.1683 -49.5923 146° Southeast  Level FlightAware Approximate
Mon 06:26:00 AM -19.2894 -49.5063 146° Southeast  Level FlightAware Approximate
Mon 06:27:00 AM -19.4104 -49.4202 146° Southeast  Level FlightAware Approximate
Mon 06:28:00 AM -19.5313 -49.3339 146° Southeast  Level FlightAware Approximate
Mon 06:29:00 AM -19.6522 -49.2475 146° Southeast  Level FlightAware Approximate
Mon 06:30:00 AM -19.7731 -49.1609 146° Southeast  Level FlightAware Approximate
Mon 06:31:00 AM -19.8940 -49.0742 146° Southeast  Level FlightAware Approximate
Mon 06:32:00 AM -20.0148 -48.9874 146° Southeast  Level FlightAware Approximate
Mon 06:33:00 AM -20.1355 -48.9005 146° Southeast  Level FlightAware Approximate
Mon 06:34:00 AM -20.2562 -48.8134 146° Southeast  Level FlightAware Approximate
Mon 06:35:00 AM -20.3769 -48.7262 146° Southeast  Level FlightAware Approximate
Mon 06:36:00 AM -20.4975 -48.6389 146° Southeast  Level FlightAware Approximate
Mon 06:37:00 AM -20.6181 -48.5514 146° Southeast  Level FlightAware Approximate
Mon 06:38:00 AM -20.7386 -48.4638 146° Southeast  Level FlightAware Approximate
Mon 06:39:00 AM -20.8591 -48.3760 146° Southeast  Level FlightAware Approximate
Mon 06:40:00 AM -20.9796 -48.2881 146° Southeast  Level FlightAware Approximate
Mon 06:41:00 AM -21.1000 -48.2001 146° Southeast  Level FlightAware Approximate
Mon 06:42:00 AM -21.2204 -48.1119 146° Southeast  Level FlightAware Approximate
Mon 06:43:00 AM -21.3407 -48.0236 146° Southeast  Level FlightAware Approximate
Mon 06:44:00 AM -21.4609 -47.9351 146° Southeast  Level FlightAware Approximate
Mon 06:45:00 AM -21.5812 -47.8465 146° Southeast  Level FlightAware Approximate
Mon 06:46:00 AM -21.7004 -47.7563 143° Southeast  Level FlightAware Approximate
Mon 06:47:00 AM -21.8234 -47.6726 151° Southeast  Level FlightAware Approximate
Mon 06:48:00 AM -21.9404 -47.5798 146° Southeast  Level FlightAware Approximate
Mon 06:49:00 AM -22.0612 -47.4918 146° Southeast  Level FlightAware Approximate
Mon 06:50:00 AM -22.1818 -47.4034 146° Southeast  Level FlightAware Approximate
Mon 06:51:00 AM -22.3024 -47.3149 145° Southeast  Level FlightAware Approximate
Mon 06:52:00 AM -22.4212 -47.2235 145° Southeast  Level FlightAware Approximate
Mon 06:53:00 AM -22.5397 -47.1316 144° Southeast  Level FlightAware Approximate
Mon 06:54:00 AM -22.6569 -47.0379 144° Southeast  Level FlightAware Approximate
Mon 06:55:00 AM -22.7744 -46.9442 145° Southeast  Level FlightAware Approximate
Mon 06:56:00 AM -22.8943 -46.8543 145° Southeast  Level FlightAware Approximate
Mon 06:57:00 AM -23.0154 -46.7662 146° Southeast  Level FlightAware Approximate
Mon 06:58:00 AM -23.1326 -46.6727 149° Southeast  Level FlightAware Approximate
Mon 06:59:00 AM -23.2555 -46.5876 145° Southeast  Level FlightAware Approximate
Mon 07:00:00 AM -23.3755 -46.4975 145° Southeast  Level FlightAware Approximate
Mon 07:01:00 AM -23.4167 -46.4667 145° Southeast  Level FlightAware Approximate
Mon 07:02:00 AM -23.4321 -46.4695 145° Southeast  Level Estimated
Mon 07:03:00 AM -23.4321 -46.4695 145° Southeast  Level Estimated
Mon 07:04:00 AM -23.4321 -46.4695 145° Southeast  Level Estimated
Mon 07:05:00 AM -23.4321 -46.4695 145° Southeast  Level Estimated

Login

Don't have an account? Register now (free) for customized features, flight alerts, and more!